sensor_id;sensor_type;location;lat;lon;timestamp;P1;durP1;ratioP1;P2;durP2;ratioP2
52294;SDS011;38243;53.212;6.574;2022-11-13T00:00:27;6.77;;;3.70;;
52294;SDS011;38243;53.212;6.574;2022-11-13T00:02:53;4.38;;;3.78;;
52294;SDS011;38243;53.212;6.574;2022-11-13T00:05:18;7.72;;;3.75;;
52294;SDS011;38243;53.212;6.574;2022-11-13T00:07:44;4.60;;;3.73;;
52294;SDS011;38243;53.212;6.574;2022-11-13T00:10:10;4.40;;;3.40;;
52294;SDS011;38243;53.212;6.574;2022-11-13T00:12:36;4.90;;;3.67;;
52294;SDS011;38243;53.212;6.574;2022-11-13T00:15:01;6.77;;;3.50;;
52294;SDS011;38243;53.212;6.574;2022-11-13T00:17:27;5.43;;;3.63;;
52294;SDS011;38243;53.212;6.574;2022-11-13T00:19:53;4.68;;;3.78;;
52294;SDS011;38243;53.212;6.574;2022-11-13T00:22:19;6.28;;;3.70;;
52294;SDS011;38243;53.212;6.574;2022-11-13T00:24:45;5.18;;;3.85;;
52294;SDS011;38243;53.212;6.574;2022-11-13T00:27:11;6.07;;;3.93;;
52294;SDS011;38243;53.212;6.574;2022-11-13T00:29:37;4.80;;;4.10;;
52294;SDS011;38243;53.212;6.574;2022-11-13T00:32:03;4.63;;;3.72;;
52294;SDS011;38243;53.212;6.574;2022-11-13T00:34:29;5.40;;;4.20;;
52294;SDS011;38243;53.212;6.574;2022-11-13T00:36:54;6.03;;;3.53;;
52294;SDS011;38243;53.212;6.574;2022-11-13T00:39:20;5.35;;;3.72;;
52294;SDS011;38243;53.212;6.574;2022-11-13T00:41:46;3.70;;;3.40;;
52294;SDS011;38243;53.212;6.574;2022-11-13T00:44:11;6.30;;;3.92;;
52294;SDS011;38243;53.212;6.574;2022-11-13T00:46:37;4.38;;;3.65;;
52294;SDS011;38243;53.212;6.574;2022-11-13T00:49:03;4.60;;;3.60;;
52294;SDS011;38243;53.212;6.574;2022-11-13T00:51:29;4.32;;;3.60;;
52294;SDS011;38243;53.212;6.574;2022-11-13T00:53:55;4.57;;;3.80;;
52294;SDS011;38243;53.212;6.574;2022-11-13T00:56:20;5.50;;;3.83;;
52294;SDS011;38243;53.212;6.574;2022-11-13T00:58:46;4.88;;;3.72;;
52294;SDS011;38243;53.212;6.574;2022-11-13T01:01:13;5.27;;;4.27;;
52294;SDS011;38243;53.212;6.574;2022-11-13T01:03:41;5.90;;;3.92;;
52294;SDS011;38243;53.212;6.574;2022-11-13T01:08:40;5.00;;;3.78;;
52294;SDS011;38243;53.212;6.574;2022-11-13T01:11:07;4.67;;;3.30;;
52294;SDS011;38243;53.212;6.574;2022-11-13T01:13:34;4.30;;;3.50;;
52294;SDS011;38243;53.212;6.574;2022-11-13T01:16:03;5.05;;;4.00;;
52294;SDS011;38243;53.212;6.574;2022-11-13T01:18:30;4.05;;;3.13;;
52294;SDS011;38243;53.212;6.574;2022-11-13T01:21:07;3.22;;;2.92;;
52294;SDS011;38243;53.212;6.574;2022-11-13T01:23:37;5.03;;;4.00;;
52294;SDS011;38243;53.212;6.574;2022-11-13T01:26:04;4.90;;;4.20;;
52294;SDS011;38243;53.212;6.574;2022-11-13T01:28:30;5.05;;;3.70;;
52294;SDS011;38243;53.212;6.574;2022-11-13T01:30:55;5.07;;;3.80;;
52294;SDS011;38243;53.212;6.574;2022-11-13T01:33:21;5.57;;;3.80;;
52294;SDS011;38243;53.212;6.574;2022-11-13T01:35:47;6.13;;;4.10;;
52294;SDS011;38243;53.212;6.574;2022-11-13T01:38:12;5.90;;;4.13;;
52294;SDS011;38243;53.212;6.574;2022-11-13T01:40:44;5.25;;;4.07;;
52294;SDS011;38243;53.212;6.574;2022-11-13T01:43:44;5.77;;;3.90;;
52294;SDS011;38243;53.212;6.574;2022-11-13T01:46:12;5.88;;;4.10;;
52294;SDS011;38243;53.212;6.574;2022-11-13T01:48:50;5.00;;;4.18;;
52294;SDS011;38243;53.212;6.574;2022-11-13T01:51:33;9.38;;;4.30;;
52294;SDS011;38243;53.212;6.574;2022-11-13T01:54:29;5.70;;;4.35;;
52294;SDS011;38243;53.212;6.574;2022-11-13T01:56:58;7.18;;;4.65;;
52294;SDS011;38243;53.212;6.574;2022-11-13T01:59:29;7.95;;;4.70;;
52294;SDS011;38243;53.212;6.574;2022-11-13T02:01:59;6.75;;;4.82;;
52294;SDS011;38243;53.212;6.574;2022-11-13T02:04:25;7.53;;;4.80;;
52294;SDS011;38243;53.212;6.574;2022-11-13T02:07:15;6.63;;;5.03;;
52294;SDS011;38243;53.212;6.574;2022-11-13T02:09:47;7.80;;;4.50;;
52294;SDS011;38243;53.212;6.574;2022-11-13T02:12:19;7.28;;;4.75;;
52294;SDS011;38243;53.212;6.574;2022-11-13T02:15:11;6.77;;;4.47;;
52294;SDS011;38243;53.212;6.574;2022-11-13T02:17:42;5.13;;;3.70;;
52294;SDS011;38243;53.212;6.574;2022-11-13T02:20:14;5.88;;;4.00;;
52294;SDS011;38243;53.212;6.574;2022-11-13T02:25:39;5.97;;;3.70;;
52294;SDS011;38243;53.212;6.574;2022-11-13T02:28:07;5.53;;;3.40;;
52294;SDS011;38243;53.212;6.574;2022-11-13T02:30:33;4.80;;;3.20;;
52294;SDS011;38243;53.212;6.574;2022-11-13T02:33:00;3.95;;;3.17;;
52294;SDS011;38243;53.212;6.574;2022-11-13T02:35:27;5.82;;;2.97;;
52294;SDS011;38243;53.212;6.574;2022-11-13T02:37:58;4.22;;;3.38;;
52294;SDS011;38243;53.212;6.574;2022-11-13T02:40:26;5.00;;;3.20;;
52294;SDS011;38243;53.212;6.574;2022-11-13T02:42:52;4.75;;;3.20;;
52294;SDS011;38243;53.212;6.574;2022-11-13T02:45:18;5.07;;;3.70;;
52294;SDS011;38243;53.212;6.574;2022-11-13T02:47:44;4.53;;;3.53;;
52294;SDS011;38243;53.212;6.574;2022-11-13T02:50:10;4.50;;;3.50;;
52294;SDS011;38243;53.212;6.574;2022-11-13T02:52:37;4.45;;;3.30;;
52294;SDS011;38243;53.212;6.574;2022-11-13T02:55:03;4.50;;;3.50;;
52294;SDS011;38243;53.212;6.574;2022-11-13T02:57:29;3.47;;;3.10;;
52294;SDS011;38243;53.212;6.574;2022-11-13T02:59:55;3.75;;;3.10;;
52294;SDS011;38243;53.212;6.574;2022-11-13T03:02:21;3.75;;;2.78;;
52294;SDS011;38243;53.212;6.574;2022-11-13T03:04:47;3.43;;;3.10;;
52294;SDS011;38243;53.212;6.574;2022-11-13T03:07:12;4.70;;;2.80;;
52294;SDS011;38243;53.212;6.574;2022-11-13T03:09:38;4.75;;;3.10;;
52294;SDS011;38243;53.212;6.574;2022-11-13T03:12:06;4.55;;;3.40;;
52294;SDS011;38243;53.212;6.574;2022-11-13T03:14:32;3.25;;;2.92;;
52294;SDS011;38243;53.212;6.574;2022-11-13T03:16:58;4.15;;;3.05;;
52294;SDS011;38243;53.212;6.574;2022-11-13T03:19:24;4.70;;;2.90;;
52294;SDS011;38243;53.212;6.574;2022-11-13T03:21:49;2.60;;;2.40;;
52294;SDS011;38243;53.212;6.574;2022-11-13T03:24:15;3.85;;;3.13;;
52294;SDS011;38243;53.212;6.574;2022-11-13T03:26:41;4.07;;;2.40;;
52294;SDS011;38243;53.212;6.574;2022-11-13T03:29:06;4.22;;;3.08;;
52294;SDS011;38243;53.212;6.574;2022-11-13T03:31:32;5.17;;;3.40;;
52294;SDS011;38243;53.212;6.574;2022-11-13T03:33:58;4.85;;;3.30;;
52294;SDS011;38243;53.212;6.574;2022-11-13T03:36:23;4.78;;;2.90;;
52294;SDS011;38243;53.212;6.574;2022-11-13T03:38:49;5.40;;;3.23;;
52294;SDS011;38243;53.212;6.574;2022-11-13T03:41:15;5.15;;;2.97;;
52294;SDS011;38243;53.212;6.574;2022-11-13T03:43:41;5.87;;;3.33;;
52294;SDS011;38243;53.212;6.574;2022-11-13T03:46:07;4.65;;;2.65;;
52294;SDS011;38243;53.212;6.574;2022-11-13T03:48:33;6.03;;;3.20;;
52294;SDS011;38243;53.212;6.574;2022-11-13T03:50:59;3.97;;;3.13;;
52294;SDS011;38243;53.212;6.574;2022-11-13T03:53:25;4.65;;;3.13;;
52294;SDS011;38243;53.212;6.574;2022-11-13T03:55:51;4.00;;;3.22;;
52294;SDS011;38243;53.212;6.574;2022-11-13T03:58:16;7.20;;;2.90;;
52294;SDS011;38243;53.212;6.574;2022-11-13T04:00:43;4.43;;;3.00;;
52294;SDS011;38243;53.212;6.574;2022-11-13T04:03:10;4.28;;;3.13;;
52294;SDS011;38243;53.212;6.574;2022-11-13T04:05:35;4.38;;;3.03;;
52294;SDS011;38243;53.212;6.574;2022-11-13T04:08:02;3.63;;;3.17;;
52294;SDS011;38243;53.212;6.574;2022-11-13T04:10:28;4.30;;;2.88;;
52294;SDS011;38243;53.212;6.574;2022-11-13T04:12:54;3.40;;;3.10;;
52294;SDS011;38243;53.212;6.574;2022-11-13T04:15:20;5.63;;;3.30;;
52294;SDS011;38243;53.212;6.574;2022-11-13T04:17:46;4.22;;;3.40;;
52294;SDS011;38243;53.212;6.574;2022-11-13T04:20:13;4.60;;;3.33;;
52294;SDS011;38243;53.212;6.574;2022-11-13T04:22:39;4.35;;;3.10;;
52294;SDS011;38243;53.212;6.574;2022-11-13T04:25:05;4.23;;;2.90;;
52294;SDS011;38243;53.212;6.574;2022-11-13T04:27:31;4.63;;;3.43;;
52294;SDS011;38243;53.212;6.574;2022-11-13T04:29:57;3.53;;;3.03;;
52294;SDS011;38243;53.212;6.574;2022-11-13T04:32:22;3.20;;;2.90;;
52294;SDS011;38243;53.212;6.574;2022-11-13T04:34:48;4.80;;;3.03;;
52294;SDS011;38243;53.212;6.574;2022-11-13T04:37:14;4.13;;;2.92;;
52294;SDS011;38243;53.212;6.574;2022-11-13T04:39:39;4.30;;;3.20;;
52294;SDS011;38243;53.212;6.574;2022-11-13T04:42:05;3.33;;;2.63;;
52294;SDS011;38243;53.212;6.574;2022-11-13T04:44:49;3.22;;;2.70;;
52294;SDS011;38243;53.212;6.574;2022-11-13T04:47:15;4.55;;;3.10;;
52294;SDS011;38243;53.212;6.574;2022-11-13T04:49:41;5.37;;;3.37;;
52294;SDS011;38243;53.212;6.574;2022-11-13T04:52:06;4.18;;;3.10;;
52294;SDS011;38243;53.212;6.574;2022-11-13T04:54:32;3.75;;;3.00;;
52294;SDS011;38243;53.212;6.574;2022-11-13T04:56:58;4.97;;;2.90;;
52294;SDS011;38243;53.212;6.574;2022-11-13T04:59:23;4.35;;;2.75;;
52294;SDS011;38243;53.212;6.574;2022-11-13T05:01:49;3.40;;;2.80;;
52294;SDS011;38243;53.212;6.574;2022-11-13T05:04:15;3.45;;;2.92;;
52294;SDS011;38243;53.212;6.574;2022-11-13T05:06:41;3.30;;;3.00;;
52294;SDS011;38243;53.212;6.574;2022-11-13T05:09:06;3.33;;;3.03;;
52294;SDS011;38243;53.212;6.574;2022-11-13T05:11:32;4.80;;;3.40;;
52294;SDS011;38243;53.212;6.574;2022-11-13T05:13:58;4.05;;;3.05;;
52294;SDS011;38243;53.212;6.574;2022-11-13T05:16:24;4.67;;;3.20;;
52294;SDS011;38243;53.212;6.574;2022-11-13T05:18:49;3.75;;;3.03;;
52294;SDS011;38243;53.212;6.574;2022-11-13T05:21:15;4.20;;;3.30;;
52294;SDS011;38243;53.212;6.574;2022-11-13T05:23:41;7.65;;;3.15;;
52294;SDS011;38243;53.212;6.574;2022-11-13T05:26:08;4.38;;;2.83;;
52294;SDS011;38243;53.212;6.574;2022-11-13T05:28:37;3.30;;;2.78;;
52294;SDS011;38243;53.212;6.574;2022-11-13T05:31:04;6.43;;;3.20;;
52294;SDS011;38243;53.212;6.574;2022-11-13T05:33:32;5.10;;;2.92;;
52294;SDS011;38243;53.212;6.574;2022-11-13T05:36:05;3.60;;;2.72;;
52294;SDS011;38243;53.212;6.574;2022-11-13T05:38:35;5.00;;;3.17;;
52294;SDS011;38243;53.212;6.574;2022-11-13T05:43:32;4.03;;;3.20;;
52294;SDS011;38243;53.212;6.574;2022-11-13T05:45:59;3.90;;;3.13;;
52294;SDS011;38243;53.212;6.574;2022-11-13T05:48:29;3.78;;;3.22;;
52294;SDS011;38243;53.212;6.574;2022-11-13T05:51:06;3.20;;;2.90;;
52294;SDS011;38243;53.212;6.574;2022-11-13T05:53:34;4.43;;;2.97;;
52294;SDS011;38243;53.212;6.574;2022-11-13T05:56:04;4.13;;;3.10;;
52294;SDS011;38243;53.212;6.574;2022-11-13T05:58:32;4.10;;;2.95;;
52294;SDS011;38243;53.212;6.574;2022-11-13T06:01:05;3.20;;;2.90;;
52294;SDS011;38243;53.212;6.574;2022-11-13T06:03:42;2.95;;;2.58;;
52294;SDS011;38243;53.212;6.574;2022-11-13T06:06:09;3.60;;;2.90;;
52294;SDS011;38243;53.212;6.574;2022-11-13T06:08:36;4.10;;;3.20;;
52294;SDS011;38243;53.212;6.574;2022-11-13T06:11:04;5.03;;;2.90;;
52294;SDS011;38243;53.212;6.574;2022-11-13T06:13:32;3.03;;;2.73;;
52294;SDS011;38243;53.212;6.574;2022-11-13T06:16:02;4.43;;;3.15;;
52294;SDS011;38243;53.212;6.574;2022-11-13T06:18:30;3.90;;;3.03;;
52294;SDS011;38243;53.212;6.574;2022-11-13T06:21:00;2.97;;;2.63;;
52294;SDS011;38243;53.212;6.574;2022-11-13T06:23:27;3.40;;;3.10;;
52294;SDS011;38243;53.212;6.574;2022-11-13T06:25:58;3.35;;;2.83;;
52294;SDS011;38243;53.212;6.574;2022-11-13T06:28:27;3.28;;;2.80;;
52294;SDS011;38243;53.212;6.574;2022-11-13T06:30:52;3.85;;;3.05;;
52294;SDS011;38243;53.212;6.574;2022-11-13T06:33:18;3.83;;;2.80;;
52294;SDS011;38243;53.212;6.574;2022-11-13T06:35:44;3.38;;;2.97;;
52294;SDS011;38243;53.212;6.574;2022-11-13T06:38:09;4.50;;;3.70;;
52294;SDS011;38243;53.212;6.574;2022-11-13T06:40:37;4.75;;;3.38;;
52294;SDS011;38243;53.212;6.574;2022-11-13T06:43:03;8.63;;;3.35;;
52294;SDS011;38243;53.212;6.574;2022-11-13T06:45:28;3.63;;;2.90;;
52294;SDS011;38243;53.212;6.574;2022-11-13T06:47:54;3.67;;;3.30;;
52294;SDS011;38243;53.212;6.574;2022-11-13T06:50:20;3.20;;;2.90;;
52294;SDS011;38243;53.212;6.574;2022-11-13T06:52:45;4.38;;;3.20;;
52294;SDS011;38243;53.212;6.574;2022-11-13T06:55:11;4.27;;;2.97;;
52294;SDS011;38243;53.212;6.574;2022-11-13T06:57:37;6.60;;;3.50;;
52294;SDS011;38243;53.212;6.574;2022-11-13T07:00:03;5.63;;;2.97;;
52294;SDS011;38243;53.212;6.574;2022-11-13T07:02:29;6.72;;;3.10;;
52294;SDS011;38243;53.212;6.574;2022-11-13T07:04:54;5.73;;;3.30;;
52294;SDS011;38243;53.212;6.574;2022-11-13T07:07:20;8.02;;;2.88;;
52294;SDS011;38243;53.212;6.574;2022-11-13T07:09:46;6.47;;;3.00;;
52294;SDS011;38243;53.212;6.574;2022-11-13T07:12:12;4.70;;;2.95;;
52294;SDS011;38243;53.212;6.574;2022-11-13T07:14:37;6.20;;;3.90;;
52294;SDS011;38243;53.212;6.574;2022-11-13T07:17:03;5.18;;;3.30;;
52294;SDS011;38243;53.212;6.574;2022-11-13T07:19:29;5.75;;;3.10;;
52294;SDS011;38243;53.212;6.574;2022-11-13T07:21:54;5.17;;;3.33;;
52294;SDS011;38243;53.212;6.574;2022-11-13T07:24:20;6.70;;;3.35;;
52294;SDS011;38243;53.212;6.574;2022-11-13T07:26:46;6.07;;;3.47;;
52294;SDS011;38243;53.212;6.574;2022-11-13T07:29:11;4.80;;;3.45;;
52294;SDS011;38243;53.212;6.574;2022-11-13T07:31:37;5.33;;;3.20;;
52294;SDS011;38243;53.212;6.574;2022-11-13T07:34:03;9.15;;;3.40;;
52294;SDS011;38243;53.212;6.574;2022-11-13T07:36:28;6.20;;;3.30;;
52294;SDS011;38243;53.212;6.574;2022-11-13T07:38:54;4.63;;;3.20;;
52294;SDS011;38243;53.212;6.574;2022-11-13T07:41:20;7.20;;;3.25;;
52294;SDS011;38243;53.212;6.574;2022-11-13T07:43:45;5.57;;;3.10;;
52294;SDS011;38243;53.212;6.574;2022-11-13T07:46:11;5.43;;;3.10;;
52294;SDS011;38243;53.212;6.574;2022-11-13T07:48:37;5.97;;;3.53;;
52294;SDS011;38243;53.212;6.574;2022-11-13T07:51:03;5.50;;;3.35;;
52294;SDS011;38243;53.212;6.574;2022-11-13T07:53:28;3.70;;;3.20;;
52294;SDS011;38243;53.212;6.574;2022-11-13T07:55:54;5.93;;;3.20;;
52294;SDS011;38243;53.212;6.574;2022-11-13T07:58:20;3.63;;;3.00;;
52294;SDS011;38243;53.212;6.574;2022-11-13T08:00:46;4.80;;;3.35;;
52294;SDS011;38243;53.212;6.574;2022-11-13T08:03:13;4.07;;;2.80;;
52294;SDS011;38243;53.212;6.574;2022-11-13T08:05:40;4.80;;;3.20;;
52294;SDS011;38243;53.212;6.574;2022-11-13T08:08:07;5.05;;;3.00;;
52294;SDS011;38243;53.212;6.574;2022-11-13T08:10:35;4.80;;;3.00;;
52294;SDS011;38243;53.212;6.574;2022-11-13T08:13:06;5.05;;;3.15;;
52294;SDS011;38243;53.212;6.574;2022-11-13T08:15:33;5.55;;;3.30;;
52294;SDS011;38243;53.212;6.574;2022-11-13T08:18:00;4.43;;;3.13;;
52294;SDS011;38243;53.212;6.574;2022-11-13T08:20:28;3.65;;;3.22;;
52294;SDS011;38243;53.212;6.574;2022-11-13T08:22:58;4.68;;;3.17;;
52294;SDS011;38243;53.212;6.574;2022-11-13T08:25:26;5.17;;;3.03;;
52294;SDS011;38243;53.212;6.574;2022-11-13T08:27:52;4.82;;;3.15;;
52294;SDS011;38243;53.212;6.574;2022-11-13T08:30:18;4.55;;;2.72;;
52294;SDS011;38243;53.212;6.574;2022-11-13T08:32:45;4.95;;;2.88;;
52294;SDS011;38243;53.212;6.574;2022-11-13T08:35:12;5.55;;;3.13;;
52294;SDS011;38243;53.212;6.574;2022-11-13T08:37:38;4.93;;;2.97;;
52294;SDS011;38243;53.212;6.574;2022-11-13T08:40:04;4.37;;;2.80;;
52294;SDS011;38243;53.212;6.574;2022-11-13T08:42:30;4.68;;;3.17;;
52294;SDS011;38243;53.212;6.574;2022-11-13T08:44:56;3.88;;;2.72;;
52294;SDS011;38243;53.212;6.574;2022-11-13T08:47:21;3.87;;;2.90;;
52294;SDS011;38243;53.212;6.574;2022-11-13T08:49:47;4.00;;;3.00;;
52294;SDS011;38243;53.212;6.574;2022-11-13T08:52:13;4.47;;;2.70;;
52294;SDS011;38243;53.212;6.574;2022-11-13T08:54:40;5.20;;;2.75;;
52294;SDS011;38243;53.212;6.574;2022-11-13T08:57:06;4.80;;;3.10;;
52294;SDS011;38243;53.212;6.574;2022-11-13T08:59:31;4.88;;;2.90;;
52294;SDS011;38243;53.212;6.574;2022-11-13T09:01:57;5.37;;;3.00;;
52294;SDS011;38243;53.212;6.574;2022-11-13T09:04:26;5.07;;;3.10;;
52294;SDS011;38243;53.212;6.574;2022-11-13T09:06:52;6.32;;;4.18;;
52294;SDS011;38243;53.212;6.574;2022-11-13T09:09:18;5.55;;;3.30;;
52294;SDS011;38243;53.212;6.574;2022-11-13T09:11:44;3.90;;;3.20;;
52294;SDS011;38243;53.212;6.574;2022-11-13T09:14:10;3.95;;;2.90;;
52294;SDS011;38243;53.212;6.574;2022-11-13T09:16:36;5.07;;;3.23;;
52294;SDS011;38243;53.212;6.574;2022-11-13T09:19:02;4.60;;;3.05;;
52294;SDS011;38243;53.212;6.574;2022-11-13T09:21:28;4.30;;;3.20;;
52294;SDS011;38243;53.212;6.574;2022-11-13T09:23:54;5.45;;;3.60;;
52294;SDS011;38243;53.212;6.574;2022-11-13T09:26:20;7.95;;;5.40;;
52294;SDS011;38243;53.212;6.574;2022-11-13T09:28:46;6.87;;;4.30;;
52294;SDS011;38243;53.212;6.574;2022-11-13T09:31:12;6.20;;;4.03;;
52294;SDS011;38243;53.212;6.574;2022-11-13T09:33:38;7.72;;;5.70;;
52294;SDS011;38243;53.212;6.574;2022-11-13T09:36:08;9.53;;;5.50;;
52294;SDS011;38243;53.212;6.574;2022-11-13T09:38:36;6.88;;;5.78;;
52294;SDS011;38243;53.212;6.574;2022-11-13T09:51:40;7.20;;;6.43;;
52294;SDS011;38243;53.212;6.574;2022-11-13T09:54:12;8.27;;;6.70;;
52294;SDS011;38243;53.212;6.574;2022-11-13T09:56:39;9.35;;;6.40;;
52294;SDS011;38243;53.212;6.574;2022-11-13T09:59:53;14.07;;;6.07;;
52294;SDS011;38243;53.212;6.574;2022-11-13T10:02:31;7.53;;;5.00;;
52294;SDS011;38243;53.212;6.574;2022-11-13T10:13:48;8.43;;;7.27;;
52294;SDS011;38243;53.212;6.574;2022-11-13T10:16:36;7.88;;;7.07;;
52294;SDS011;38243;53.212;6.574;2022-11-13T10:21:41;9.23;;;6.72;;
52294;SDS011;38243;53.212;6.574;2022-11-13T10:24:16;7.85;;;6.40;;
52294;SDS011;38243;53.212;6.574;2022-11-13T10:27:04;7.30;;;5.90;;
52294;SDS011;38243;53.212;6.574;2022-11-13T10:29:33;6.88;;;5.85;;
52294;SDS011;38243;53.212;6.574;2022-11-13T10:32:00;6.47;;;5.80;;
52294;SDS011;38243;53.212;6.574;2022-11-13T10:40:37;6.45;;;5.50;;
52294;SDS011;38243;53.212;6.574;2022-11-13T10:45:52;6.68;;;5.93;;
52294;SDS011;38243;53.212;6.574;2022-11-13T10:48:30;6.60;;;5.53;;
52294;SDS011;38243;53.212;6.574;2022-11-13T10:51:20;6.07;;;5.32;;
52294;SDS011;38243;53.212;6.574;2022-11-13T10:53:48;6.28;;;5.32;;
52294;SDS011;38243;53.212;6.574;2022-11-13T10:56:25;8.57;;;5.95;;
52294;SDS011;38243;53.212;6.574;2022-11-13T11:01:38;6.95;;;6.22;;
52294;SDS011;38243;53.212;6.574;2022-11-13T11:04:06;7.22;;;6.18;;
52294;SDS011;38243;53.212;6.574;2022-11-13T11:06:39;7.35;;;6.35;;
52294;SDS011;38243;53.212;6.574;2022-11-13T11:09:27;6.72;;;5.80;;
52294;SDS011;38243;53.212;6.574;2022-11-13T11:12:17;5.83;;;5.23;;
52294;SDS011;38243;53.212;6.574;2022-11-13T11:17:22;6.82;;;5.63;;
52294;SDS011;38243;53.212;6.574;2022-11-13T11:25:47;7.30;;;6.55;;
52294;SDS011;38243;53.212;6.574;2022-11-13T11:28:29;8.35;;;6.30;;
52294;SDS011;38243;53.212;6.574;2022-11-13T11:41:49;6.20;;;5.60;;
52294;SDS011;38243;53.212;6.574;2022-11-13T11:44:24;7.88;;;6.20;;
52294;SDS011;38243;53.212;6.574;2022-11-13T11:46:56;7.25;;;6.47;;
52294;SDS011;38243;53.212;6.574;2022-11-13T11:49:21;7.53;;;6.53;;
52294;SDS011;38243;53.212;6.574;2022-11-13T11:52:07;7.13;;;6.35;;
52294;SDS011;38243;53.212;6.574;2022-11-13T11:54:50;7.30;;;6.15;;
52294;SDS011;38243;53.212;6.574;2022-11-13T12:03:01;7.57;;;6.50;;
52294;SDS011;38243;53.212;6.574;2022-11-13T12:08:54;8.43;;;7.20;;
52294;SDS011;38243;53.212;6.574;2022-11-13T12:11:28;8.82;;;7.28;;
52294;SDS011;38243;53.212;6.574;2022-11-13T12:22:29;6.63;;;5.60;;
52294;SDS011;38243;53.212;6.574;2022-11-13T12:30:50;6.80;;;5.60;;
52294;SDS011;38243;53.212;6.574;2022-11-13T12:33:32;5.93;;;5.25;;
52294;SDS011;38243;53.212;6.574;2022-11-13T12:36:15;8.57;;;7.27;;
52294;SDS011;38243;53.212;6.574;2022-11-13T12:46:32;16.15;;;6.47;;
52294;SDS011;38243;53.212;6.574;2022-11-13T12:49:13;8.90;;;5.90;;
52294;SDS011;38243;53.212;6.574;2022-11-13T12:52:33;6.50;;;5.72;;
52294;SDS011;38243;53.212;6.574;2022-11-13T12:54:39;8.13;;;5.25;;
52294;SDS011;38243;53.212;6.574;2022-11-13T12:59:40;9.50;;;5.80;;
52294;SDS011;38243;53.212;6.574;2022-11-13T13:10:25;7.60;;;5.10;;
52294;SDS011;38243;53.212;6.574;2022-11-13T13:15:44;6.72;;;5.40;;
52294;SDS011;38243;53.212;6.574;2022-11-13T13:20:44;8.33;;;5.60;;
52294;SDS011;38243;53.212;6.574;2022-11-13T13:28:46;7.70;;;5.38;;
52294;SDS011;38243;53.212;6.574;2022-11-13T13:31:19;7.97;;;4.80;;
52294;SDS011;38243;53.212;6.574;2022-11-13T13:36:37;8.20;;;5.20;;
52294;SDS011;38243;53.212;6.574;2022-11-13T13:42:02;8.40;;;5.65;;
52294;SDS011;38243;53.212;6.574;2022-11-13T13:44:52;8.20;;;5.60;;
52294;SDS011;38243;53.212;6.574;2022-11-13T13:47:39;8.70;;;5.32;;
52294;SDS011;38243;53.212;6.574;2022-11-13T13:50:16;8.73;;;5.63;;
52294;SDS011;38243;53.212;6.574;2022-11-13T13:52:55;8.98;;;5.40;;
52294;SDS011;38243;53.212;6.574;2022-11-13T13:55:27;7.85;;;5.40;;
52294;SDS011;38243;53.212;6.574;2022-11-13T13:58:00;8.82;;;5.88;;
52294;SDS011;38243;53.212;6.574;2022-11-13T14:00:31;8.02;;;6.05;;
52294;SDS011;38243;53.212;6.574;2022-11-13T14:02:57;6.90;;;5.90;;
52294;SDS011;38243;53.212;6.574;2022-11-13T14:07:59;8.50;;;6.28;;
52294;SDS011;38243;53.212;6.574;2022-11-13T14:10:31;8.82;;;5.88;;
52294;SDS011;38243;53.212;6.574;2022-11-13T14:13:00;7.47;;;5.70;;
52294;SDS011;38243;53.212;6.574;2022-11-13T14:15:31;9.00;;;6.00;;
52294;SDS011;38243;53.212;6.574;2022-11-13T14:18:08;11.15;;;7.45;;
52294;SDS011;38243;53.212;6.574;2022-11-13T14:23:18;10.50;;;7.30;;
52294;SDS011;38243;53.212;6.574;2022-11-13T14:25:48;11.07;;;7.45;;
52294;SDS011;38243;53.212;6.574;2022-11-13T14:28:16;11.00;;;7.38;;
52294;SDS011;38243;53.212;6.574;2022-11-13T14:30:50;11.27;;;7.45;;
52294;SDS011;38243;53.212;6.574;2022-11-13T14:33:22;9.47;;;6.83;;
52294;SDS011;38243;53.212;6.574;2022-11-13T14:35:56;9.30;;;6.80;;
52294;SDS011;38243;53.212;6.574;2022-11-13T14:38:24;7.85;;;6.30;;
52294;SDS011;38243;53.212;6.574;2022-11-13T14:40:52;8.90;;;6.72;;
52294;SDS011;38243;53.212;6.574;2022-11-13T14:43:26;8.43;;;6.80;;
52294;SDS011;38243;53.212;6.574;2022-11-13T14:45:58;9.38;;;6.20;;
52294;SDS011;38243;53.212;6.574;2022-11-13T14:48:28;10.57;;;5.88;;
52294;SDS011;38243;53.212;6.574;2022-11-13T14:53:29;10.23;;;5.90;;
52294;SDS011;38243;53.212;6.574;2022-11-13T14:56:06;11.52;;;5.72;;
52294;SDS011;38243;53.212;6.574;2022-11-13T14:58:39;8.45;;;5.50;;
52294;SDS011;38243;53.212;6.574;2022-11-13T15:03:41;11.15;;;4.88;;
52294;SDS011;38243;53.212;6.574;2022-11-13T15:06:14;8.38;;;5.03;;
52294;SDS011;38243;53.212;6.574;2022-11-13T15:08:44;6.88;;;4.40;;
52294;SDS011;38243;53.212;6.574;2022-11-13T15:11:12;6.85;;;4.88;;
52294;SDS011;38243;53.212;6.574;2022-11-13T15:13:39;7.75;;;4.65;;
52294;SDS011;38243;53.212;6.574;2022-11-13T15:16:06;7.90;;;4.93;;
52294;SDS011;38243;53.212;6.574;2022-11-13T15:18:35;7.00;;;4.70;;
52294;SDS011;38243;53.212;6.574;2022-11-13T15:21:01;7.13;;;4.63;;
52294;SDS011;38243;53.212;6.574;2022-11-13T15:23:26;6.50;;;4.30;;
52294;SDS011;38243;53.212;6.574;2022-11-13T15:25:53;6.40;;;4.43;;
52294;SDS011;38243;53.212;6.574;2022-11-13T15:28:18;7.22;;;4.55;;
52294;SDS011;38243;53.212;6.574;2022-11-13T15:30:44;6.57;;;4.53;;
52294;SDS011;38243;53.212;6.574;2022-11-13T15:33:13;6.10;;;4.50;;
52294;SDS011;38243;53.212;6.574;2022-11-13T15:35:41;7.50;;;4.25;;
52294;SDS011;38243;53.212;6.574;2022-11-13T15:38:07;6.57;;;4.40;;
52294;SDS011;38243;53.212;6.574;2022-11-13T15:40:36;7.30;;;4.40;;
52294;SDS011;38243;53.212;6.574;2022-11-13T15:43:03;6.38;;;4.38;;
52294;SDS011;38243;53.212;6.574;2022-11-13T15:45:30;6.35;;;4.20;;
52294;SDS011;38243;53.212;6.574;2022-11-13T15:47:56;5.93;;;4.38;;
52294;SDS011;38243;53.212;6.574;2022-11-13T15:50:21;6.30;;;3.93;;
52294;SDS011;38243;53.212;6.574;2022-11-13T15:52:48;5.80;;;4.55;;
52294;SDS011;38243;53.212;6.574;2022-11-13T15:55:34;5.43;;;3.97;;
52294;SDS011;38243;53.212;6.574;2022-11-13T15:57:59;4.75;;;4.00;;
52294;SDS011;38243;53.212;6.574;2022-11-13T16:00:26;4.95;;;3.97;;
52294;SDS011;38243;53.212;6.574;2022-11-13T16:02:53;4.95;;;4.03;;
52294;SDS011;38243;53.212;6.574;2022-11-13T16:05:24;5.35;;;3.88;;
52294;SDS011;38243;53.212;6.574;2022-11-13T16:07:53;4.80;;;3.80;;
52294;SDS011;38243;53.212;6.574;2022-11-13T16:10:20;5.38;;;3.60;;
52294;SDS011;38243;53.212;6.574;2022-11-13T16:12:46;4.68;;;3.80;;
52294;SDS011;38243;53.212;6.574;2022-11-13T16:15:17;5.22;;;3.60;;
52294;SDS011;38243;53.212;6.574;2022-11-13T16:17:45;5.45;;;3.78;;
52294;SDS011;38243;53.212;6.574;2022-11-13T16:20:14;8.20;;;3.50;;
52294;SDS011;38243;53.212;6.574;2022-11-13T16:22:41;7.40;;;3.65;;
52294;SDS011;38243;53.212;6.574;2022-11-13T16:25:09;8.60;;;3.53;;
52294;SDS011;38243;53.212;6.574;2022-11-13T16:27:37;6.33;;;3.40;;
52294;SDS011;38243;53.212;6.574;2022-11-13T16:30:03;4.45;;;3.20;;
52294;SDS011;38243;53.212;6.574;2022-11-13T16:32:29;5.40;;;3.15;;
52294;SDS011;38243;53.212;6.574;2022-11-13T16:34:55;4.40;;;3.30;;
52294;SDS011;38243;53.212;6.574;2022-11-13T16:37:21;6.27;;;3.67;;
52294;SDS011;38243;53.212;6.574;2022-11-13T16:39:48;4.10;;;3.10;;
52294;SDS011;38243;53.212;6.574;2022-11-13T16:42:14;3.88;;;3.10;;
52294;SDS011;38243;53.212;6.574;2022-11-13T16:44:41;6.30;;;3.00;;
52294;SDS011;38243;53.212;6.574;2022-11-13T16:49:47;3.70;;;2.90;;
52294;SDS011;38243;53.212;6.574;2022-11-13T16:52:13;3.83;;;2.95;;
52294;SDS011;38243;53.212;6.574;2022-11-13T16:54:39;3.20;;;2.80;;
52294;SDS011;38243;53.212;6.574;2022-11-13T16:57:05;3.90;;;3.03;;
52294;SDS011;38243;53.212;6.574;2022-11-13T16:59:33;4.72;;;2.97;;
52294;SDS011;38243;53.212;6.574;2022-11-13T17:01:58;4.07;;;3.05;;
52294;SDS011;38243;53.212;6.574;2022-11-13T17:04:24;3.80;;;2.90;;
52294;SDS011;38243;53.212;6.574;2022-11-13T17:06:50;4.05;;;2.92;;
52294;SDS011;38243;53.212;6.574;2022-11-13T17:09:15;4.20;;;3.00;;